createdAt,value
2022-11-28T00:02:57.938Z,0.07
2022-11-28T00:05:47.233Z,0.14
2022-11-28T00:08:34.645Z,-0.39
2022-11-28T00:11:30.096Z,0.08
2022-11-28T00:14:18.136Z,0.12
2022-11-28T00:17:05.144Z,-0.13
2022-11-28T00:19:51.477Z,-0.03
2022-11-28T00:22:37.905Z,0.08
2022-11-28T00:25:24.421Z,0.06
2022-11-28T00:28:11.123Z,-0.13
2022-11-28T00:30:57.680Z,0.03
2022-11-28T00:33:44.433Z,-0.16
2022-11-28T00:36:31.275Z,0.09
2022-11-28T00:39:18.321Z,0.11
2022-11-28T00:42:06.987Z,0.05
2022-11-28T00:44:53.717Z,0.05
2022-11-28T00:47:39.912Z,-0.01
2022-11-28T00:50:27.615Z,-0.20
2022-11-28T00:53:13.885Z,-0.08
2022-11-28T00:56:03.853Z,-0.10
2022-11-28T00:58:50.364Z,-0.18
2022-11-28T01:01:42.445Z,-0.67
2022-11-28T01:04:29.169Z,-0.13
2022-11-28T01:07:15.993Z,-0.11
2022-11-28T01:10:02.067Z,-0.11
2022-11-28T01:12:48.918Z,-0.17
2022-11-28T01:15:35.674Z,-0.23
2022-11-28T01:18:22.251Z,-0.26
2022-11-28T01:21:09.067Z,-0.11
2022-11-28T01:23:56.138Z,-0.20
2022-11-28T01:26:42.845Z,-0.20
2022-11-28T01:29:29.940Z,-0.19
2022-11-28T01:32:19.203Z,-0.24
2022-11-28T01:35:06.365Z,-0.25
2022-11-28T01:37:52.480Z,-0.23
2022-11-28T01:40:45.820Z,-0.30
2022-11-28T01:43:32.473Z,-0.57
2022-11-28T01:46:19.113Z,-0.51
2022-11-28T01:49:24.237Z,-0.36
2022-11-28T01:52:15.620Z,-0.47
2022-11-28T01:55:02.704Z,-0.49
2022-11-28T01:57:55.314Z,-0.62
2022-11-28T02:00:41.712Z,-0.48
2022-11-28T02:03:34.676Z,-0.46
2022-11-28T02:06:23.504Z,-0.57
2022-11-28T02:09:15.128Z,-0.42
2022-11-28T02:12:52.025Z,-0.39
2022-11-28T02:15:49.766Z,-0.36
2022-11-28T02:19:06.727Z,-0.33
2022-11-28T02:21:59.332Z,-0.26
2022-11-28T02:24:57.384Z,-0.44
2022-11-28T02:28:18.337Z,-0.26
2022-11-28T02:31:22.675Z,-0.43
2022-11-28T02:34:32.283Z,-0.36
2022-11-28T02:37:27.100Z,-0.31
2022-11-28T02:40:23.795Z,-0.30
2022-11-28T02:43:31.761Z,-0.32
2022-11-28T02:46:30.808Z,-0.30
2022-11-28T02:49:25.063Z,-0.30
2022-11-28T02:52:15.771Z,-0.57
2022-11-28T02:55:02.841Z,-0.39
2022-11-28T02:57:53.452Z,-0.33
2022-11-28T03:00:43.975Z,-0.38
2022-11-28T03:03:43.267Z,-0.24
2022-11-28T03:06:58.583Z,-0.40
2022-11-28T03:10:08.235Z,-0.20
2022-11-28T03:13:06.732Z,-0.17
2022-11-28T03:16:11.725Z,-0.15
2022-11-28T03:19:23.111Z,-0.23
2022-11-28T03:22:46.991Z,-0.11
2022-11-28T03:25:54.865Z,-0.13
2022-11-28T03:28:49.230Z,-0.23
2022-11-28T03:31:45.338Z,-0.23
2022-11-28T03:34:35.330Z,-0.33
2022-11-28T03:37:26.004Z,-0.46
2022-11-28T03:40:15.938Z,-0.33
2022-11-28T03:43:05.126Z,-0.30
2022-11-28T03:45:54.559Z,-0.36
2022-11-28T03:48:44.751Z,-0.31
2022-11-28T03:51:36.449Z,-0.40
2022-11-28T03:54:32.951Z,-0.45
2022-11-28T03:57:23.116Z,-0.43
2022-11-28T04:00:13.049Z,-0.45
2022-11-28T04:03:16.652Z,-0.43
2022-11-28T04:06:07.730Z,-0.62
2022-11-28T04:09:28.927Z,-0.62
2022-11-28T04:12:56.720Z,-0.75
2022-11-28T04:16:00.152Z,-1.18
2022-11-28T04:19:01.190Z,-1.14
2022-11-28T04:21:52.217Z,-0.83
2022-11-28T04:25:01.636Z,-0.86
2022-11-28T04:27:52.073Z,-0.97
2022-11-28T04:30:39.215Z,-0.96
2022-11-28T04:33:27.253Z,-0.90
2022-11-28T04:36:15.155Z,-0.92
2022-11-28T04:39:02.418Z,-0.99
2022-11-28T04:42:03.212Z,-0.97
2022-11-28T04:45:23.124Z,-1.01
2022-11-28T04:48:09.635Z,-1.05
2022-11-28T04:51:05.478Z,-0.96
2022-11-28T04:54:00.604Z,-1.01
2022-11-28T04:56:56.452Z,-1.06
2022-11-28T04:59:43.208Z,-1.17
2022-11-28T05:02:30.083Z,-1.07
2022-11-28T05:05:21.451Z,-1.17
2022-11-28T05:08:08.155Z,-1.36
2022-11-28T05:10:54.562Z,-1.24
2022-11-28T05:13:41.372Z,-1.11
2022-11-28T05:16:29.389Z,-1.34
2022-11-28T05:19:16.163Z,-1.10
2022-11-28T05:22:02.482Z,-1.17
2022-11-28T05:24:49.419Z,-1.20
2022-11-28T05:27:35.679Z,-1.16
2022-11-28T05:30:23.217Z,-1.23
2022-11-28T05:33:09.762Z,-1.39
2022-11-28T05:36:11.257Z,-1.18
2022-11-28T05:38:59.113Z,-1.35
2022-11-28T05:41:48.918Z,-1.07
2022-11-28T05:44:38.363Z,-1.27
2022-11-28T05:47:25.386Z,-1.21
2022-11-28T05:50:12.034Z,-1.11
2022-11-28T05:53:02.074Z,-1.88
2022-11-28T05:55:51.456Z,-1.33
2022-11-28T05:58:38.388Z,-1.01
2022-11-28T06:01:27.381Z,-1.09
2022-11-28T06:04:13.994Z,-1.43
2022-11-28T06:07:00.214Z,-1.20
2022-11-28T06:09:46.741Z,-1.00
2022-11-28T06:12:33.449Z,-1.10
2022-11-28T06:15:20.438Z,-1.15
2022-11-28T06:18:06.525Z,-1.41
2022-11-28T06:20:53.280Z,-1.17
2022-11-28T06:23:39.857Z,-1.27
2022-11-28T06:26:28.643Z,-1.26
2022-11-28T06:29:15.052Z,-1.37
2022-11-28T06:32:01.941Z,-1.42
2022-11-28T06:34:48.108Z,-1.34
2022-11-28T06:37:34.558Z,-1.40
2022-11-28T06:40:21.456Z,-1.43
2022-11-28T06:43:08.632Z,-1.48
2022-11-28T06:45:55.182Z,-1.42
2022-11-28T06:48:42.021Z,-1.48
2022-11-28T06:51:28.697Z,-1.71
2022-11-28T06:54:15.346Z,-1.58
2022-11-28T06:57:01.808Z,-1.66
2022-11-28T06:59:49.289Z,-1.73
2022-11-28T07:02:35.911Z,-1.65
2022-11-28T07:05:23.081Z,-1.72
2022-11-28T07:08:10.339Z,-1.71
2022-11-28T07:10:57.724Z,-1.67
2022-11-28T07:13:48.279Z,-1.74
2022-11-28T07:16:35.348Z,-1.86
2022-11-28T07:19:23.223Z,-1.74
2022-11-28T07:22:11.565Z,-1.78
2022-11-28T07:24:58.124Z,-1.67
2022-11-28T07:27:45.087Z,-2.24
2022-11-28T07:30:31.361Z,-1.61
2022-11-28T07:33:17.903Z,-1.51
2022-11-28T07:36:06.641Z,-1.69
2022-11-28T07:38:58.974Z,-1.51
2022-11-28T07:41:45.313Z,-1.42
2022-11-28T07:44:32.077Z,-1.43
2022-11-28T07:47:18.538Z,-1.27
2022-11-28T07:50:05.731Z,-1.42
2022-11-28T07:52:52.242Z,-1.08
2022-11-28T07:55:39.067Z,-1.09
2022-11-28T07:58:25.416Z,-0.91
2022-11-28T08:01:23.027Z,-0.75
2022-11-28T08:04:10.037Z,-0.64
2022-11-28T08:06:57.121Z,-0.49
2022-11-28T08:09:43.974Z,-0.36
2022-11-28T08:12:31.262Z,-0.22
2022-11-28T08:15:17.467Z,-0.05
2022-11-28T08:18:04.060Z,-0.02
2022-11-28T08:20:50.615Z,0.18
2022-11-28T08:23:37.788Z,0.34
2022-11-28T08:26:28.887Z,0.16
2022-11-28T08:29:17.082Z,0.56
2022-11-28T08:32:03.780Z,0.55
2022-11-28T08:34:50.848Z,0.82
2022-11-28T08:37:37.000Z,0.94
2022-11-28T08:40:26.621Z,0.96
2022-11-28T08:43:13.489Z,1.01
2022-11-28T08:46:02.324Z,1.23
2022-11-28T08:48:50.212Z,1.27
2022-11-28T08:51:37.937Z,1.42
2022-11-28T08:54:24.582Z,1.44
2022-11-28T08:57:11.522Z,1.33
2022-11-28T08:59:57.617Z,1.45
2022-11-28T09:02:44.311Z,1.70
2022-11-28T09:05:31.162Z,1.73
2022-11-28T09:08:20.234Z,1.59
2022-11-28T09:11:11.805Z,1.74
2022-11-28T09:14:00.218Z,1.53
2022-11-28T09:16:46.671Z,1.59
2022-11-28T09:19:33.529Z,1.16
2022-11-28T09:22:19.964Z,1.53
2022-11-28T09:25:06.953Z,1.31
2022-11-28T09:27:53.365Z,1.45
2022-11-28T09:30:40.357Z,1.52
2022-11-28T09:33:26.653Z,1.50
2022-11-28T09:36:16.941Z,1.51
2022-11-28T09:39:03.622Z,1.47
2022-11-28T09:42:02.319Z,1.52
2022-11-28T09:44:53.249Z,1.51
2022-11-28T09:47:40.387Z,1.59
2022-11-28T09:50:31.037Z,1.60
2022-11-28T09:53:27.154Z,1.70
2022-11-28T09:56:18.320Z,1.72
2022-11-28T09:59:04.735Z,1.74
2022-11-28T10:02:05.924Z,1.74
2022-11-28T10:05:02.548Z,1.71
2022-11-28T10:08:07.322Z,1.81
2022-11-28T10:11:12.429Z,1.80
2022-11-28T10:14:32.369Z,1.84
2022-11-28T10:18:07.484Z,1.91
2022-11-28T10:20:59.708Z,1.96
2022-11-28T10:23:46.062Z,1.95
2022-11-28T10:26:38.990Z,1.95
2022-11-28T10:29:30.292Z,1.94
2022-11-28T10:32:18.881Z,1.78
2022-11-28T10:35:52.540Z,2.02
2022-11-28T10:38:38.873Z,2.01
2022-11-28T10:41:34.802Z,1.93
2022-11-28T10:44:31.359Z,2.00
2022-11-28T10:47:44.053Z,1.93
2022-11-28T10:50:45.226Z,2.02
2022-11-28T10:53:50.069Z,2.01
2022-11-28T10:57:05.801Z,2.05
2022-11-28T10:59:58.598Z,2.07
2022-11-28T11:02:48.284Z,2.06
2022-11-28T11:05:36.475Z,1.98
2022-11-28T11:08:25.808Z,2.00
2022-11-28T11:11:27.717Z,2.01
2022-11-28T11:14:14.181Z,2.02
2022-11-28T11:17:00.640Z,1.83
2022-11-28T11:19:47.351Z,1.89
2022-11-28T11:22:33.975Z,2.12
2022-11-28T11:25:20.586Z,1.98
2022-11-28T11:28:38.848Z,2.16
2022-11-28T11:31:41.197Z,2.10
2022-11-28T11:34:35.472Z,1.97
2022-11-28T11:37:36.147Z,2.21
2022-11-28T11:40:26.416Z,2.24
2022-11-28T11:43:32.039Z,2.26
2022-11-28T11:46:20.324Z,2.17
2022-11-28T11:49:06.710Z,2.27
2022-11-28T11:52:00.199Z,2.16
2022-11-28T11:54:55.650Z,2.27
2022-11-28T11:57:53.271Z,2.12
2022-11-28T12:00:40.480Z,2.30
2022-11-28T12:03:38.580Z,2.22
2022-11-28T12:06:29.292Z,2.17
2022-11-28T12:09:30.473Z,2.33
2022-11-28T12:12:23.281Z,2.32
2022-11-28T12:15:17.406Z,2.34
2022-11-28T12:18:36.414Z,2.36
2022-11-28T12:21:49.263Z,2.39
2022-11-28T12:25:17.099Z,2.36
2022-11-28T12:28:35.993Z,2.39
2022-11-28T12:32:00.410Z,2.34
2022-11-28T12:35:09.759Z,1.98
2022-11-28T12:38:10.833Z,2.38
2022-11-28T12:41:32.172Z,2.36
2022-11-28T12:44:38.815Z,2.35
2022-11-28T12:47:40.803Z,2.35
2022-11-28T12:50:36.942Z,2.36
2022-11-28T12:53:29.564Z,2.40
2022-11-28T12:56:45.727Z,2.36
2022-11-28T12:59:53.594Z,2.42
2022-11-28T13:03:01.141Z,2.41
2022-11-28T13:06:09.391Z,2.42
2022-11-28T13:09:18.208Z,2.40
2022-11-28T13:12:39.744Z,2.40
2022-11-28T13:15:46.572Z,2.43
2022-11-28T13:18:41.715Z,2.43
2022-11-28T13:21:44.988Z,2.43
2022-11-28T13:24:37.005Z,2.47
2022-11-28T13:27:39.527Z,2.40
2022-11-28T13:30:27.466Z,2.44
2022-11-28T13:33:33.239Z,2.47
2022-11-28T13:40:32.239Z,2.46
2022-11-28T13:43:25.970Z,2.10
2022-11-28T13:46:12.259Z,2.31
2022-11-28T13:49:20.461Z,2.18
2022-11-28T13:52:19.243Z,2.44
2022-11-28T13:55:25.956Z,2.40
2022-11-28T13:58:18.113Z,2.42
2022-11-28T14:01:11.594Z,2.19
2022-11-28T14:04:13.899Z,2.40
2022-11-28T14:07:07.079Z,2.32
2022-11-28T14:10:23.258Z,2.35
2022-11-28T14:13:23.552Z,2.36
2022-11-28T14:16:17.874Z,2.33
2022-11-28T14:19:17.033Z,2.32
2022-11-28T14:22:32.581Z,2.30
2022-11-28T14:25:28.448Z,2.32
2022-11-28T14:28:48.637Z,2.36
2022-11-28T14:31:37.887Z,2.36
2022-11-28T14:34:38.686Z,2.18
2022-11-28T14:37:30.117Z,1.90
2022-11-28T14:40:50.753Z,2.29
2022-11-28T14:43:42.597Z,2.25
2022-11-28T14:46:33.564Z,2.03
2022-11-28T14:49:21.538Z,2.18
2022-11-28T14:52:41.758Z,2.17
2022-11-28T14:55:37.992Z,2.07
2022-11-28T14:58:26.754Z,1.98
2022-11-28T15:01:19.351Z,2.00
2022-11-28T15:04:25.115Z,1.96
2022-11-28T15:07:32.787Z,1.88
2022-11-28T15:10:25.738Z,1.88
2022-11-28T15:13:51.704Z,1.83
2022-11-28T15:16:46.591Z,1.81
2022-11-28T15:19:47.199Z,1.78
2022-11-28T15:22:42.627Z,1.75
2022-11-28T15:25:37.484Z,1.35
2022-11-28T15:28:30.013Z,1.73
2022-11-28T15:31:27.299Z,1.34
2022-11-28T15:34:28.410Z,1.31
2022-11-28T15:37:19.056Z,1.64
2022-11-28T15:40:06.375Z,1.55
2022-11-28T15:42:52.991Z,1.41
2022-11-28T15:45:42.872Z,1.44
2022-11-28T15:48:48.419Z,1.56
2022-11-28T15:51:40.748Z,1.50
2022-11-28T15:54:35.678Z,1.52
2022-11-28T15:57:25.247Z,1.48
2022-11-28T16:00:20.998Z,1.54
2022-11-28T16:03:14.165Z,1.53
2022-11-28T16:06:00.912Z,1.50
2022-11-28T16:09:02.069Z,1.42
2022-11-28T16:11:50.492Z,1.43
2022-11-28T16:14:43.370Z,1.42
2022-11-28T16:17:32.646Z,1.40
2022-11-28T16:20:28.860Z,1.40
2022-11-28T16:23:21.049Z,1.10
2022-11-28T16:26:26.634Z,1.38
2022-11-28T16:29:17.397Z,1.41
2022-11-28T16:32:11.409Z,1.38
2022-11-28T16:35:01.285Z,0.92
2022-11-28T16:37:47.719Z,1.33
2022-11-28T16:40:37.369Z,1.31
2022-11-28T16:43:35.254Z,1.31
2022-11-28T16:46:25.373Z,1.39
2022-11-28T16:49:50.761Z,1.40
2022-11-28T16:52:50.968Z,1.42
2022-11-28T16:55:38.961Z,1.37
2022-11-28T16:58:25.618Z,1.47
2022-11-28T17:01:12.304Z,1.49
2022-11-28T17:03:59.156Z,1.31
2022-11-28T17:06:57.117Z,1.29
2022-11-28T17:09:51.834Z,1.53
2022-11-28T17:12:39.276Z,1.47
2022-11-28T17:15:25.626Z,1.54
2022-11-28T17:18:12.293Z,1.46
2022-11-28T17:21:01.148Z,1.42
2022-11-28T17:24:26.202Z,1.60
2022-11-28T17:27:33.705Z,1.58
2022-11-28T17:30:21.495Z,1.55
2022-11-28T17:33:07.919Z,1.61
2022-11-28T17:35:55.937Z,1.31
2022-11-28T17:38:42.512Z,1.32
2022-11-28T17:41:29.344Z,1.59
2022-11-28T17:44:24.928Z,1.62
2022-11-28T17:47:15.239Z,1.60
2022-11-28T17:50:01.581Z,1.50
2022-11-28T17:52:49.666Z,1.22
2022-11-28T17:55:42.217Z,1.52
2022-11-28T17:58:32.398Z,1.64
2022-11-28T18:01:27.312Z,1.66
2022-11-28T18:04:21.277Z,1.51
2022-11-28T18:07:07.568Z,1.43
2022-11-28T18:09:54.129Z,1.50
2022-11-28T18:12:42.166Z,1.69
2022-11-28T18:15:29.443Z,1.64
2022-11-28T18:18:15.925Z,1.67
2022-11-28T18:21:03.957Z,1.70
2022-11-28T18:23:55.665Z,1.51
2022-11-28T18:26:50.801Z,1.64
2022-11-28T18:29:48.931Z,1.69
2022-11-28T18:32:41.856Z,1.64
2022-11-28T18:35:28.232Z,1.72
2022-11-28T18:38:15.416Z,1.71
2022-11-28T18:41:10.069Z,1.70
2022-11-28T18:44:02.038Z,1.67
2022-11-28T18:46:55.281Z,1.66
2022-11-28T18:49:43.357Z,1.52
2022-11-28T18:52:30.386Z,1.46
2022-11-28T18:55:24.077Z,1.64
2022-11-28T18:58:12.200Z,1.63
2022-11-28T19:01:29.624Z,1.70
2022-11-28T19:04:23.124Z,1.72
2022-11-28T19:07:10.712Z,1.55
2022-11-28T19:09:59.952Z,1.52
2022-11-28T19:12:49.115Z,1.64
2022-11-28T19:15:41.180Z,1.65
2022-11-28T19:18:32.082Z,1.65
2022-11-28T19:21:23.469Z,1.80
2022-11-28T19:24:14.384Z,1.79
2022-11-28T19:27:01.092Z,1.49
2022-11-28T19:29:52.100Z,1.74
2022-11-28T19:32:39.138Z,1.76
2022-11-28T19:35:28.673Z,1.59
2022-11-28T19:38:19.029Z,1.67
2022-11-28T19:41:09.548Z,1.77
2022-11-28T19:43:57.013Z,1.49
2022-11-28T19:46:48.463Z,1.77
2022-11-28T19:49:41.612Z,1.48
2022-11-28T19:52:29.407Z,1.71
2022-11-28T19:55:16.523Z,1.54
2022-11-28T19:58:05.411Z,1.66
2022-11-28T20:00:54.123Z,1.61
2022-11-28T20:03:42.843Z,1.81
2022-11-28T20:06:33.796Z,1.69
2022-11-28T20:09:22.197Z,1.44
2022-11-28T20:12:11.160Z,1.63
2022-11-28T20:15:02.398Z,1.78
2022-11-28T20:17:54.789Z,1.72
2022-11-28T20:20:51.436Z,1.73
2022-11-28T20:23:52.420Z,1.77
2022-11-28T20:26:43.571Z,1.81
2022-11-28T20:29:30.140Z,1.79
2022-11-28T20:32:19.286Z,1.89
2022-11-28T20:35:06.633Z,1.87
2022-11-28T20:37:53.377Z,1.88
2022-11-28T20:40:39.876Z,1.43
2022-11-28T20:43:26.259Z,1.80
2022-11-28T20:46:22.350Z,1.58
2022-11-28T20:49:13.340Z,1.69
2022-11-28T20:51:59.374Z,1.83
2022-11-28T20:54:55.405Z,1.89
2022-11-28T20:57:44.374Z,1.60
2022-11-28T21:00:33.485Z,1.87
2022-11-28T21:03:23.602Z,1.80
2022-11-28T21:06:10.590Z,1.85
2022-11-28T21:08:59.431Z,1.84
2022-11-28T21:12:02.847Z,1.80
2022-11-28T21:14:49.140Z,1.80
2022-11-28T21:17:35.876Z,1.75
2022-11-28T21:20:22.288Z,1.59
2022-11-28T21:23:13.318Z,1.90
2022-11-28T21:26:05.739Z,1.84
2022-11-28T21:28:54.101Z,1.89
2022-11-28T21:31:44.369Z,1.64
2022-11-28T21:34:30.849Z,1.81
2022-11-28T21:37:17.184Z,1.85
2022-11-28T21:40:04.076Z,1.73
2022-11-28T21:42:55.538Z,1.81
2022-11-28T21:45:42.533Z,1.78
2022-11-28T21:48:32.940Z,1.81
2022-11-28T21:51:22.668Z,1.79
2022-11-28T21:54:13.056Z,1.83
2022-11-28T21:57:01.615Z,1.70
2022-11-28T21:59:48.670Z,1.61
2022-11-28T22:02:35.542Z,1.82
2022-11-28T22:05:24.344Z,1.84
2022-11-28T22:08:12.107Z,1.83
2022-11-28T22:11:01.111Z,1.85
2022-11-28T22:13:49.108Z,1.75
2022-11-28T22:16:35.714Z,1.61
2022-11-28T22:19:22.839Z,1.80
2022-11-28T22:22:09.551Z,1.69
2022-11-28T22:24:59.039Z,1.78
2022-11-28T22:27:48.348Z,1.82
2022-11-28T22:30:35.236Z,1.79
2022-11-28T22:33:21.787Z,1.84
2022-11-28T22:36:13.826Z,1.79
2022-11-28T22:39:01.145Z,1.52
2022-11-28T22:41:47.758Z,1.80
2022-11-28T22:44:34.360Z,1.76
2022-11-28T22:47:24.106Z,1.64
2022-11-28T22:50:11.179Z,1.70
2022-11-28T22:52:57.890Z,1.73
2022-11-28T22:55:44.075Z,1.80
2022-11-28T22:58:31.213Z,1.53
2022-11-28T23:01:20.687Z,1.72
2022-11-28T23:04:11.008Z,1.74
2022-11-28T23:06:57.293Z,1.78
2022-11-28T23:09:43.700Z,1.71
2022-11-28T23:12:32.746Z,1.74
2022-11-28T23:15:19.301Z,1.71
2022-11-28T23:18:05.608Z,1.78
2022-11-28T23:20:56.335Z,1.74
2022-11-28T23:23:44.204Z,1.70
2022-11-28T23:26:34.424Z,1.67
2022-11-28T23:29:25.018Z,1.74
2022-11-28T23:32:14.232Z,1.64
2022-11-28T23:35:01.317Z,1.71
2022-11-28T23:37:48.010Z,1.62
2022-11-28T23:40:34.396Z,1.72
2022-11-28T23:43:20.968Z,1.50
2022-11-28T23:46:08.461Z,1.68
2022-11-28T23:48:55.855Z,1.51
2022-11-28T23:51:42.311Z,1.66
2022-11-28T23:54:29.305Z,1.69
2022-11-28T23:57:15.707Z,1.66
